Latest Coastal Weather Observations for Sydney Harbour

IDN60701

Issued at 7:31 am EST Saturday 1 August 2015 (issued every 10 minutes, with the page automatically refreshed every 10 minutes)

About coastal observations | Map of coastal stations | Coastal observations for NSW | Marine services | Other Formats
Station Details ID: 066196 Name: WEDDING CAKE WEST Lat: -33.84 Lon: 151.26 Height: 6.0 m
Data from the previous 72 hours. | See also: Recent months for locations in New South Wales
Date/Time
EST
Temp

°C
Wind Pressure Rain
since 9am
mm
Weather Cloud Vis
km
Sea
Height
m
Swell
Dir
 
Speed
knots
Gust
knots
hPa Trend Height
m
Period
s
Dir
01/07:30am 12.7 N 10 13 - - - - - - - - - -
01/07:00am 12.9 N 8 11 - - - - - - - - - -
01/06:30am 12.8 N 10 11 - - - - - - - - - -
01/06:00am 13.1 NNW 10 12 - - - - - - - - - -
01/05:30am 13.0 NNW 10 11 - - - - - - - - - -
01/05:00am 13.0 NNW 11 14 - - - - - - - - - -
01/04:30am 13.4 NNW 12 15 - - - - - - - - - -
01/04:00am 13.2 NNW 11 17 - - - - - - - - - -
01/03:30am 12.7 NNW 12 15 - - - - - - - - - -
01/03:00am 11.8 NNW 8 11 - - - - - - - - - -
01/02:30am 11.9 NNW 7 9 - - - - - - - - - -
01/02:00am 13.1 NW 8 11 - - - - - - - - - -
01/01:30am 12.6 NW 7 11 - - - - - - - - - -
01/01:00am 12.9 WNW 7 9 - - - - - - - - - -
01/12:30am 13.5 NW 12 16 - - - - - - - - - -
01/12:00am 13.8 W 9 11 - - - - - - - - - -
 
Date/Time
EST
Temp

°C
Wind Pressure Rain
since 9am
mm
Weather Cloud Vis
km
Sea
Height
m
Swell
Dir
 
Speed
knots
Gust
knots
hPa Trend Height
m
Period
s
Dir
31/11:30pm 13.7 W 6 8 - - - - - - - - - -
31/11:00pm 14.5 NW 7 9 - - - - - - - - - -
31/10:30pm 15.6 NNW 9 12 - - - - - - - - - -
31/10:00pm 15.2 NNW 7 8 - - - - - - - - - -
31/09:30pm 15.7 N 7 9 - - - - - - - - - -
31/09:00pm 15.8 N 9 11 - - - - - - - - - -
31/08:30pm 16.2 N 10 12 - - - - - - - - - -
31/08:00pm 17.0 NE 12 14 - - - - - - - - - -
31/07:30pm 17.1 NE 12 15 - - - - - - - - - -
31/07:00pm 17.1 ENE 13 15 - - - - - - - - - -
31/06:30pm 17.1 E 11 13 - - - - - - - - - -
31/06:00pm 17.6 ENE 8 10 - - - - - - - - - -
31/05:30pm 17.2 NNE 5 6 - - - - - - - - - -
31/05:00pm 17.8 NNE 7 8 - - - - - - - - - -
31/04:30pm 18.5 W 3 5 - - - - - - - - - -
31/04:00pm 18.4 WSW 3 4 - - - - - - - - - -
31/03:30pm 18.5 WSW 6 8 - - - - - - - - - -
31/03:00pm 18.5 WSW 5 7 - - - - - - - - - -
31/02:30pm 18.7 W 7 11 - - - - - - - - - -
31/02:00pm 18.3 W 10 15 - - - - - - - - - -
31/01:30pm 18.0 W 11 14 - - - - - - - - - -
31/01:00pm 17.6 W 10 14 - - - - - - - - - -
31/12:30pm 17.3 W 8 13 - - - - - - - - - -
31/12:00pm 17.0 W 10 13 - - - - - - - - - -
31/11:30am 16.8 W 12 15 - - - - - - - - - -
31/11:00am 16.3 W 12 17 - - - - - - - - - -
31/10:30am 15.7 WSW 12 15 - - - - - - - - - -
31/10:00am 15.9 WSW 8 11 - - - - - - - - - -
31/09:30am 15.5 SW 6 8 - - - - - - - - - -
31/09:00am 15.0 WNW 9 12 - - - - - - - - - -
31/08:30am 14.5 WNW 4 8 - - - - - - - - - -
31/08:00am 13.9 NW 8 12 - - - - - - - - - -
31/07:30am 14.3 NW 10 12 - - - - - - - - - -
31/07:00am 13.6 SW 4 6 - - - - - - - - - -
31/06:30am 13.6 SW 4 5 - - - - - - - - - -
31/06:00am 14.2 CALM 0 0 - - - - - - - - - -
31/05:30am 14.2 E 2 6 - - - - - - - - - -
31/05:00am 13.6 NNE 4 6 - - - - - - - - - -
31/04:30am 13.4 NNW 6 8 - - - - - - - - - -
31/04:00am 14.0 WNW 5 6 - - - - - - - - - -
31/03:30am 14.0 NW 5 7 - - - - - - - - - -
31/03:00am 14.0 NW 3 6 - - - - - - - - - -
31/02:30am 13.4 CALM 0 3 - - - - - - - - - -
31/02:00am 14.0 CALM 0 0 - - - - - - - - - -
31/01:30am 14.4 NW 4 5 - - - - - - - - - -
31/01:00am 14.6 WNW 5 7 - - - - - - - - - -
31/12:30am 14.8 NW 5 8 - - - - - - - - - -
31/12:00am 14.8 NNW 6 8 - - - - - - - - - -
 
Date/Time
EST
Temp

°C
Wind Pressure Rain
since 9am
mm
Weather Cloud Vis
km
Sea
Height
m
Swell
Dir
 
Speed
knots
Gust
knots
hPa Trend Height
m
Period
s
Dir
30/11:30pm 15.1 N 6 8 - - - - - - - - - -
30/11:00pm 15.1 N 9 12 - - - - - - - - - -
30/10:30pm 15.2 NNW 6 9 - - - - - - - - - -
30/10:00pm 15.4 NNW 11 16 - - - - - - - - - -
30/09:30pm 15.6 NNW 6 10 - - - - - - - - - -
30/09:00pm 16.0 NNW 6 9 - - - - - - - - - -
30/08:30pm 16.3 NNW 8 13 - - - - - - - - - -
30/08:00pm 16.7 NNW 12 18 - - - - - - - - - -
30/07:30pm 17.0 NNW 12 18 - - - - - - - - - -
30/07:00pm 17.3 NNW 13 19 - - - - - - - - - -
30/06:30pm 17.5 NNW 12 19 - - - - - - - - - -
30/06:00pm 17.6 NNW 12 17 - - - - - - - - - -
30/05:30pm 17.9 NNW 13 17 - - - - - - - - - -
30/05:00pm 18.4 NNW 12 16 - - - - - - - - - -
30/04:30pm 18.7 NNW 10 15 - - - - - - - - - -
30/04:00pm 18.9 NNW 8 11 - - - - - - - - - -
30/03:30pm 19.0 NNW 10 13 - - - - - - - - - -
30/03:00pm 19.1 N 12 17 - - - - - - - - - -
30/02:30pm 18.8 NNW 13 18 - - - - - - - - - -
30/02:00pm 18.2 N 11 15 - - - - - - - - - -
30/01:30pm 17.8 NNW 7 13 - - - - - - - - - -
30/01:00pm 17.4 NNW 11 18 - - - - - - - - - -
30/12:30pm 17.1 NW 10 19 - - - - - - - - - -
30/12:00pm 16.7 NNW 9 15 - - - - - - - - - -
30/11:30am 16.4 NNW 9 15 - - - - - - - - - -
30/11:00am 15.5 N 9 13 - - - - - - - - - -
30/10:30am 14.7 N 13 16 - - - - - - - - - -
30/10:00am 14.4 NNW 9 16 - - - - - - - - - -
30/09:30am 14.1 NNW 6 12 - - - - - - - - - -
30/09:00am 12.7 NNW 6 9 - - - - - - - - - -
30/08:30am 12.5 NNW 8 13 - - - - - - - - - -
30/08:00am 12.3 NNW 13 16 - - - - - - - - - -
30/07:30am 12.1 NNW 9 13 - - - - - - - - - -
30/07:00am 11.5 NW 11 15 - - - - - - - - - -
30/06:30am 11.4 NNW 4 7 - - - - - - - - - -
30/06:00am 11.2 W 3 10 - - - - - - - - - -
30/05:30am 11.2 WSW 5 7 - - - - - - - - - -
30/05:00am 11.1 SW 5 6 - - - - - - - - - -
30/04:30am 11.2 SW 5 7 - - - - - - - - - -
30/04:00am 11.3 W 5 7 - - - - - - - - - -
30/03:30am 11.4 NW 5 7 - - - - - - - - - -
30/03:00am 11.4 NW 7 9 - - - - - - - - - -
30/02:30am 12.1 W 3 4 - - - - - - - - - -
30/02:00am 11.9 W 8 10 - - - - - - - - - -
30/01:30am 11.8 WSW 5 9 - - - - - - - - - -
30/01:00am 12.2 WSW 5 6 - - - - - - - - - -
30/12:30am 12.2 WSW 3 4 - - - - - - - - - -
30/12:00am 12.3 WSW 4 6 - - - - - - - - - -
 
Date/Time
EST
Temp

°C
Wind Pressure Rain
since 9am
mm
Weather Cloud Vis
km
Sea
Height
m
Swell
Dir
 
Speed
knots
Gust
knots
hPa Trend Height
m
Period
s
Dir
29/11:30pm 12.4 N 3 5 - - - - - - - - - -
29/11:00pm 12.5 WNW 7 9 - - - - - - - - - -
29/10:30pm 13.6 NNW 7 8 - - - - - - - - - -
29/10:00pm 14.1 NNW 7 8 - - - - - - - - - -
29/09:30pm 14.0 N 6 7 - - - - - - - - - -
29/09:00pm 13.9 N 6 7 - - - - - - - - - -
29/08:30pm 14.1 N 6 7 - - - - - - - - - -
29/08:00pm 14.2 N 5 6 - - - - - - - - - -
29/07:30pm 14.4 N 6 7 - - - - - - - - - -
29/07:00pm 15.3 NE 6 7 - - - - - - - - - -
29/06:30pm 15.3 ENE 6 8 - - - - - - - - - -
29/06:00pm 15.1 ENE 5 7 - - - - - - - - - -
29/05:30pm 15.0 E 5 7 - - - - - - - - - -
29/05:00pm 15.1 E 5 7 - - - - - - - - - -
29/04:30pm 15.2 E 6 8 - - - - - - - - - -
29/04:00pm 16.1 E 6 10 - - - - - - - - - -
29/03:30pm 16.4 ESE 6 8 - - - - - - - - - -
29/03:00pm 16.4 SE 7 9 - - - - - - - - - -
29/02:30pm 15.5 SE 8 10 - - - - - - - - - -
29/02:00pm 15.5 SE 9 10 - - - - - - - - - -
29/01:30pm 15.6 SSE 9 13 - - - - - - - - - -
29/01:00pm 16.6 CALM 0 0 - - - - - - - - - -
29/12:30pm 15.1 WSW 3 4 - - - - - - - - - -
29/12:00pm 14.2 WSW 6 8 - - - - - - - - - -
29/11:30am 13.6 WSW 7 8 - - - - - - - - - -
29/11:00am 12.8 WSW 8 11 - - - - - - - - - -
29/10:30am 12.6 WSW 5 8 - - - - - - - - - -
29/10:00am 12.2 WNW 4 10 - - - - - - - - - -
29/09:30am 11.3 WSW 9 11 - - - - - - - - - -
29/09:00am 9.8 WSW 7 9 - - - - - - - - - -
29/08:30am 9.4 WSW 7 10 - - - - - - - - - -
29/08:00am 9.3 WSW 5 7 - - - - - - - - - -

Other Formats:

Comma delimited format used in spreadsheet applications
http://www.bom.gov.au/fwo/IDN60701/IDN60701.95766.axf

JavaScript Object Notation format (JSON) in row-major order
http://www.bom.gov.au/fwo/IDN60701/IDN60701.95766.json